createdAt,value
2022-12-13T00:00:34.515Z,76.80
2022-12-13T00:05:59.168Z,76.80
2022-12-13T00:11:03.879Z,76.80
2022-12-13T00:16:11.131Z,76.90
2022-12-13T00:21:19.548Z,77.50
2022-12-13T00:26:25.654Z,77.00
2022-12-13T00:36:59.178Z,77.30
2022-12-13T00:42:02.985Z,77.30
2022-12-13T00:47:06.599Z,77.20
2022-12-13T00:52:11.537Z,77.00
2022-12-13T00:57:15.207Z,76.90
2022-12-13T01:02:18.545Z,76.90
2022-12-13T01:07:23.264Z,77.30
2022-12-13T01:12:26.614Z,77.50
2022-12-13T01:17:30.747Z,77.50
2022-12-13T01:22:35.446Z,77.40
2022-12-13T01:27:39.027Z,77.50
2022-12-13T01:32:42.371Z,77.40
2022-12-13T01:37:47.088Z,77.60
2022-12-13T01:42:50.740Z,77.60
2022-12-13T01:47:57.182Z,77.20
2022-12-13T01:53:04.640Z,76.90
2022-12-13T01:58:08.031Z,76.70
2022-12-13T02:03:21.586Z,76.90
2022-12-13T02:08:27.269Z,76.80
2022-12-13T02:13:30.702Z,76.70
2022-12-13T02:18:48.263Z,76.50
2022-12-13T02:24:17.240Z,76.70
2022-12-13T02:29:47.156Z,76.50
2022-12-13T02:34:58.608Z,76.50
2022-12-13T02:40:08.323Z,76.00
2022-12-13T02:45:20.659Z,76.10
2022-12-13T02:50:27.208Z,76.00
2022-12-13T02:55:32.508Z,76.30
2022-12-13T03:00:45.686Z,76.10
2022-12-13T03:06:16.055Z,75.80
2022-12-13T03:11:21.422Z,75.80
2022-12-13T03:16:30.169Z,75.60
2022-12-13T03:21:47.039Z,75.50
2022-12-13T03:26:52.005Z,75.20
2022-12-13T03:31:55.835Z,74.90
2022-12-13T03:37:00.963Z,74.60
2022-12-13T03:42:04.477Z,74.70
2022-12-13T03:47:08.021Z,74.40
2022-12-13T03:52:12.695Z,75.60
2022-12-13T03:57:16.341Z,74.70
2022-12-13T04:02:31.346Z,74.20
2022-12-13T04:07:36.556Z,74.00
2022-12-13T04:13:05.832Z,73.70
2022-12-13T04:18:09.254Z,74.00
2022-12-13T04:23:14.594Z,73.50
2022-12-13T04:28:22.114Z,73.40
2022-12-13T04:33:26.327Z,73.50
2022-12-13T04:38:31.435Z,73.90
2022-12-13T04:43:34.833Z,74.10
2022-12-13T04:48:38.424Z,74.40
2022-12-13T04:53:43.205Z,74.80
2022-12-13T04:58:46.602Z,74.90
2022-12-13T05:03:50.071Z,74.90
2022-12-13T05:08:55.029Z,74.80
2022-12-13T05:14:04.401Z,74.80
2022-12-13T05:19:07.832Z,74.90
2022-12-13T05:24:12.572Z,74.80
2022-12-13T05:29:15.922Z,74.80
2022-12-13T05:34:19.301Z,74.70
2022-12-13T05:39:27.824Z,74.80
2022-12-13T05:44:33.413Z,74.80
2022-12-13T05:49:39.796Z,74.90
2022-12-13T05:54:44.670Z,74.90
2022-12-13T05:59:48.046Z,74.70
2022-12-13T06:04:51.391Z,75.00
2022-12-13T06:10:10.108Z,74.40
2022-12-13T06:15:22.455Z,74.00
2022-12-13T06:20:26.673Z,74.30
2022-12-13T06:25:32.081Z,74.20
2022-12-13T06:30:35.722Z,74.70
2022-12-13T06:35:46.280Z,74.70
2022-12-13T06:40:51.834Z,74.60
2022-12-13T06:45:55.263Z,75.00
2022-12-13T06:51:01.643Z,75.00
2022-12-13T06:56:08.198Z,75.80
2022-12-13T07:01:14.884Z,75.90
2022-12-13T07:06:27.229Z,76.10
2022-12-13T07:11:33.183Z,75.90
2022-12-13T07:16:37.691Z,76.40
2022-12-13T07:21:41.088Z,75.80
2022-12-13T07:26:46.345Z,75.20
2022-12-13T07:31:49.749Z,75.50
2022-12-13T07:36:53.291Z,75.80
2022-12-13T07:41:58.566Z,75.70
2022-12-13T07:47:02.135Z,75.70
2022-12-13T07:52:05.896Z,76.60
2022-12-13T07:57:10.651Z,75.40
2022-12-13T08:02:14.844Z,75.20
2022-12-13T08:07:18.648Z,74.90
2022-12-13T08:12:23.614Z,74.80
2022-12-13T08:17:27.006Z,74.50
2022-12-13T08:22:36.064Z,74.20
2022-12-13T08:27:42.899Z,73.60
2022-12-13T08:32:46.702Z,73.70
2022-12-13T08:37:50.079Z,73.40
2022-12-13T08:42:56.538Z,73.10
2022-12-13T08:48:00.657Z,73.20
2022-12-13T08:53:04.049Z,72.70
2022-12-13T08:58:09.160Z,72.80
2022-12-13T09:03:12.519Z,72.10
2022-12-13T09:08:24.577Z,72.10
2022-12-13T09:13:32.899Z,73.20
2022-12-13T09:18:37.418Z,73.40
2022-12-13T09:23:46.021Z,73.60
2022-12-13T09:28:51.182Z,73.10
2022-12-13T09:33:54.626Z,73.10
2022-12-13T09:38:59.301Z,73.40
2022-12-13T09:44:32.275Z,72.70
2022-12-13T09:49:36.708Z,72.40
2022-12-13T09:54:48.295Z,72.70
2022-12-13T09:59:59.928Z,72.80
2022-12-13T10:05:22.679Z,72.30
2022-12-13T10:10:28.261Z,72.50
2022-12-13T10:15:36.709Z,72.20
2022-12-13T10:20:40.225Z,72.20
2022-12-13T10:25:50.992Z,72.40
2022-12-13T10:30:57.162Z,72.20
2022-12-13T10:36:07.028Z,71.60
2022-12-13T10:41:32.735Z,71.20
2022-12-13T10:46:38.624Z,71.30
2022-12-13T10:51:42.456Z,71.60
2022-12-13T10:56:49.977Z,70.60
2022-12-13T11:01:55.574Z,71.00
2022-12-13T11:07:00.791Z,71.20
2022-12-13T11:12:12.139Z,71.00
2022-12-13T11:17:21.384Z,71.00
2022-12-13T11:22:27.867Z,70.60
2022-12-13T11:27:56.532Z,70.90
2022-12-13T11:33:19.090Z,69.90
2022-12-13T11:38:32.364Z,70.30
2022-12-13T11:43:38.551Z,70.30
2022-12-13T11:48:49.131Z,70.60
2022-12-13T11:53:57.734Z,70.90
2022-12-13T11:59:20.357Z,70.90
2022-12-13T12:04:37.894Z,70.50
2022-12-13T12:09:49.663Z,70.10
2022-12-13T12:14:59.189Z,69.80
2022-12-13T12:20:23.927Z,69.80
2022-12-13T12:25:37.135Z,69.60
2022-12-13T12:30:52.358Z,68.80
2022-12-13T12:36:26.776Z,68.70
2022-12-13T12:41:33.518Z,68.40
2022-12-13T12:47:18.302Z,68.90
2022-12-13T12:52:30.791Z,67.40
2022-12-13T12:57:45.988Z,67.10
2022-12-13T13:03:01.695Z,66.70
2022-12-13T13:08:14.010Z,66.90
2022-12-13T13:13:45.962Z,66.80
2022-12-13T13:18:52.335Z,66.70
2022-12-13T13:24:14.964Z,65.70
2022-12-13T13:29:36.917Z,64.90
2022-12-13T13:34:42.670Z,64.90
2022-12-13T13:40:02.638Z,64.70
2022-12-13T13:45:24.431Z,65.00
2022-12-13T13:51:28.424Z,65.40
2022-12-13T13:56:54.550Z,64.10
2022-12-13T14:02:32.603Z,64.80
2022-12-13T14:08:10.140Z,64.10
2022-12-13T14:13:58.481Z,64.50
2022-12-13T14:19:43.573Z,64.50
2022-12-13T14:24:54.914Z,64.40
2022-12-13T14:29:59.520Z,64.40
2022-12-13T14:35:25.365Z,65.00
2022-12-13T14:40:32.326Z,65.10
2022-12-13T14:45:37.937Z,65.60
2022-12-13T14:50:45.623Z,65.90
2022-12-13T14:56:05.331Z,66.00
2022-12-13T15:01:29.749Z,65.80
2022-12-13T15:06:34.944Z,65.60
2022-12-13T15:11:38.424Z,65.50
2022-12-13T15:16:47.861Z,65.40
2022-12-13T15:22:02.417Z,65.40
2022-12-13T15:27:06.643Z,65.30
2022-12-13T15:32:16.326Z,65.40
2022-12-13T15:37:29.089Z,65.30
2022-12-13T15:42:36.540Z,65.10
2022-12-13T15:47:46.744Z,65.10
2022-12-13T15:53:01.695Z,65.00
